createdAt,value
2017-02-23T00:00:10.156Z,21.59
2017-02-23T00:01:20.046Z,21.62
2017-02-23T00:02:30.326Z,21.56
2017-02-23T00:03:40.207Z,21.67
2017-02-23T00:04:50.868Z,21.53
2017-02-23T00:06:01.245Z,21.58
2017-02-23T00:07:11.518Z,21.59
2017-02-23T00:08:22.203Z,21.56
2017-02-23T00:09:32.107Z,21.52
2017-02-23T00:10:42.799Z,21.62
2017-02-23T00:11:53.568Z,21.58
2017-02-23T00:13:04.222Z,21.56
2017-02-23T00:14:14.524Z,21.53
2017-02-23T00:15:24.810Z,21.5
2017-02-23T00:16:34.698Z,21.56
2017-02-23T00:17:45.774Z,21.54
2017-02-23T00:18:55.654Z,21.54
2017-02-23T00:20:06.311Z,21.59
2017-02-23T00:21:16.201Z,21.53
2017-02-23T00:22:26.085Z,21.53
2017-02-23T00:23:36.467Z,21.54
2017-02-23T00:24:46.756Z,21.58
2017-02-23T00:25:57.420Z,21.54
2017-02-23T00:27:07.365Z,21.64
2017-02-23T00:28:16.917Z,21.52
2017-02-23T00:29:27.295Z,21.54
2017-02-23T00:30:37.955Z,21.53
2017-02-23T00:31:48.641Z,21.59
2017-02-23T00:32:59.291Z,21.59
2017-02-23T00:34:09.172Z,21.56
2017-02-23T00:35:18.589Z,21.58
2017-02-23T00:36:29.254Z,21.56
2017-02-23T00:37:39.924Z,21.53
2017-02-23T00:38:50.233Z,21.54
2017-02-23T00:40:00.904Z,21.54
2017-02-23T00:41:10.109Z,21.54
2017-02-23T00:42:20.759Z,21.54
2017-02-23T00:43:31.408Z,21.52
2017-02-23T00:44:42.059Z,21.5
2017-02-23T00:45:52.728Z,21.52
2017-02-23T00:47:02.332Z,21.58
2017-02-23T00:48:12.202Z,21.56
2017-02-23T00:49:22.458Z,21.52
2017-02-23T00:50:32.729Z,21.54
2017-02-23T00:51:43.386Z,21.53
2017-02-23T00:52:53.772Z,21.52
2017-02-23T00:54:03.681Z,21.56
2017-02-23T00:55:13.572Z,21.46
2017-02-23T00:56:23.853Z,21.54
2017-02-23T00:57:34.516Z,21.5
2017-02-23T00:58:45.316Z,21.53
2017-02-23T00:59:55.609Z,21.54
2017-02-23T01:01:05.881Z,21.54
2017-02-23T01:02:16.534Z,21.56
2017-02-23T01:03:26.410Z,21.49
2017-02-23T01:04:36.026Z,21.52
2017-02-23T01:05:46.700Z,21.54
2017-02-23T01:06:57.370Z,21.59
2017-02-23T01:08:07.645Z,21.58
2017-02-23T01:09:17.926Z,21.54
2017-02-23T01:10:28.559Z,21.52
2017-02-23T01:11:39.216Z,21.5
2017-02-23T01:12:48.714Z,21.49
2017-02-23T01:13:59.403Z,21.5
2017-02-23T01:15:08.913Z,21.43
2017-02-23T01:16:19.297Z,21.49
2017-02-23T01:17:29.984Z,21.49
2017-02-23T01:18:40.294Z,21.42
2017-02-23T01:19:50.162Z,21.44
2017-02-23T01:21:00.459Z,21.49
2017-02-23T01:22:10.829Z,21.49
2017-02-23T01:23:21.492Z,21.5
2017-02-23T01:24:31.773Z,21.47
2017-02-23T01:25:42.428Z,21.49
2017-02-23T01:26:52.743Z,21.52
2017-02-23T01:28:03.579Z,21.49
2017-02-23T01:29:14.236Z,21.42
2017-02-23T01:30:24.124Z,21.43
2017-02-23T01:31:34.799Z,21.49
2017-02-23T01:32:45.071Z,21.52
2017-02-23T01:33:55.487Z,21.4
2017-02-23T01:35:05.765Z,21.49
2017-02-23T01:36:16.056Z,21.4
2017-02-23T01:37:26.727Z,21.52
2017-02-23T01:38:37.387Z,21.49
2017-02-23T01:39:47.765Z,21.52
2017-02-23T01:40:58.026Z,21.49
2017-02-23T01:42:07.520Z,21.46
2017-02-23T01:43:17.811Z,21.49
2017-02-23T01:44:28.075Z,21.44
2017-02-23T01:45:38.860Z,21.54
2017-02-23T01:46:49.515Z,21.53
2017-02-23T01:48:00.162Z,21.4
2017-02-23T01:49:10.808Z,21.4
2017-02-23T01:50:21.079Z,21.43
2017-02-23T01:51:31.994Z,21.42
2017-02-23T01:52:42.670Z,21.4
2017-02-23T01:53:53.343Z,21.4
2017-02-23T01:55:03.615Z,21.47
2017-02-23T01:56:13.503Z,21.47
2017-02-23T01:57:24.288Z,21.4
2017-02-23T01:58:34.185Z,21.47
2017-02-23T01:59:44.860Z,21.44
2017-02-23T02:00:55.156Z,21.4
2017-02-23T02:02:04.681Z,21.47
2017-02-23T02:03:15.111Z,21.37
2017-02-23T02:04:25.776Z,21.37
2017-02-23T02:05:36.453Z,21.4
2017-02-23T02:06:47.140Z,21.37
2017-02-23T02:07:57.417Z,21.43
2017-02-23T02:09:08.514Z,21.4
2017-02-23T02:10:18.801Z,21.49
2017-02-23T02:11:29.063Z,21.43
2017-02-23T02:12:39.728Z,21.46
2017-02-23T02:13:49.663Z,21.46
2017-02-23T02:15:00.421Z,21.4
2017-02-23T02:16:10.687Z,21.43
2017-02-23T02:17:21.350Z,21.37
2017-02-23T02:18:32.020Z,21.43
2017-02-23T02:19:42.277Z,21.42
2017-02-23T02:20:52.661Z,21.43
2017-02-23T02:22:03.331Z,21.42
2017-02-23T02:23:13.197Z,21.42
2017-02-23T02:24:23.085Z,21.42
2017-02-23T02:25:33.364Z,21.4
2017-02-23T02:26:44.144Z,21.44
2017-02-23T02:27:54.034Z,21.38
2017-02-23T02:29:04.702Z,21.43
2017-02-23T02:30:15.004Z,21.46
2017-02-23T02:31:25.690Z,21.43
2017-02-23T02:32:36.135Z,21.42
2017-02-23T02:33:46.801Z,21.4
2017-02-23T02:34:56.685Z,21.5
2017-02-23T02:36:06.599Z,21.42
2017-02-23T02:37:16.474Z,21.42
2017-02-23T02:38:26.864Z,21.47
2017-02-23T02:39:36.347Z,21.46
2017-02-23T02:40:46.635Z,21.43
2017-02-23T02:41:57.305Z,21.42
2017-02-23T02:43:08.247Z,21.42
2017-02-23T02:44:18.289Z,21.42
2017-02-23T02:45:28.628Z,21.46
2017-02-23T02:46:38.950Z,21.42
2017-02-23T02:47:48.552Z,21.43
2017-02-23T02:48:58.824Z,21.42
2017-02-23T02:50:08.411Z,21.44
2017-02-23T02:51:19.077Z,21.44
2017-02-23T02:52:29.335Z,21.34
2017-02-23T02:53:40.007Z,21.42
2017-02-23T02:54:49.912Z,21.34
2017-02-23T02:56:00.291Z,21.43
2017-02-23T02:57:10.942Z,21.44
2017-02-23T02:58:21.626Z,21.43
2017-02-23T02:59:31.513Z,21.34
2017-02-23T03:00:41.414Z,21.42
2017-02-23T03:01:52.197Z,21.44
2017-02-23T03:03:02.850Z,21.4
2017-02-23T03:04:13.537Z,21.34
2017-02-23T03:05:24.206Z,21.47
2017-02-23T03:06:34.481Z,21.42
2017-02-23T03:07:45.437Z,21.34
2017-02-23T03:08:55.720Z,21.32
2017-02-23T03:10:06.039Z,21.42
2017-02-23T03:11:15.917Z,21.42
2017-02-23T03:12:26.581Z,21.32
2017-02-23T03:13:37.362Z,21.37
2017-02-23T03:14:48.032Z,21.44
2017-02-23T03:15:58.715Z,21.46
2017-02-23T03:17:09.411Z,21.43
2017-02-23T03:18:20.106Z,21.37
2017-02-23T03:19:30.883Z,21.35
2017-02-23T03:20:41.549Z,21.32
2017-02-23T03:21:51.419Z,21.46
2017-02-23T03:23:02.094Z,21.4
2017-02-23T03:24:12.760Z,21.29
2017-02-23T03:25:23.552Z,21.44
2017-02-23T03:26:33.817Z,21.31
2017-02-23T03:27:44.099Z,21.42
2017-02-23T03:28:53.994Z,21.35
2017-02-23T03:30:04.673Z,21.4
2017-02-23T03:31:14.262Z,21.37
2017-02-23T03:32:24.938Z,21.35
2017-02-23T03:33:34.833Z,21.4
2017-02-23T03:34:45.488Z,21.37
2017-02-23T03:35:56.156Z,21.29
2017-02-23T03:37:06.952Z,21.38
2017-02-23T03:38:17.219Z,21.37
2017-02-23T03:39:27.092Z,21.37
2017-02-23T03:40:37.783Z,21.35
2017-02-23T03:41:48.036Z,21.34
2017-02-23T03:42:57.678Z,21.34
2017-02-23T03:44:08.349Z,21.44
2017-02-23T03:45:19.024Z,21.37
2017-02-23T03:46:29.281Z,21.37
2017-02-23T03:47:39.938Z,21.4
2017-02-23T03:48:49.921Z,21.37
2017-02-23T03:50:00.604Z,21.35
2017-02-23T03:51:10.074Z,21.37
2017-02-23T03:52:20.364Z,21.35
2017-02-23T03:53:31.038Z,21.35
2017-02-23T03:54:41.428Z,21.35
2017-02-23T03:55:51.727Z,21.32
2017-02-23T03:57:02.409Z,21.35
2017-02-23T03:58:12.673Z,21.34
2017-02-23T03:59:22.569Z,21.37
2017-02-23T04:00:32.638Z,21.44
2017-02-23T04:01:43.310Z,21.35
2017-02-23T04:02:53.980Z,21.35
2017-02-23T04:04:04.570Z,21.35
2017-02-23T04:05:15.229Z,21.38
2017-02-23T04:06:25.609Z,21.44
2017-02-23T04:07:35.897Z,21.31
2017-02-23T04:08:46.183Z,21.38
2017-02-23T04:09:56.478Z,21.4
2017-02-23T04:11:07.152Z,21.44
2017-02-23T04:12:17.184Z,21.4
2017-02-23T04:13:27.855Z,21.42
2017-02-23T04:14:38.533Z,21.38
2017-02-23T04:15:48.822Z,21.35
2017-02-23T04:16:59.108Z,21.4
2017-02-23T04:18:09.509Z,21.34
2017-02-23T04:19:19.421Z,21.42
2017-02-23T04:20:30.100Z,21.34
2017-02-23T04:21:39.993Z,21.4
2017-02-23T04:22:50.672Z,21.43
2017-02-23T04:24:01.426Z,21.37
2017-02-23T04:25:12.141Z,21.42
2017-02-23T04:26:22.415Z,21.28
2017-02-23T04:27:32.308Z,21.38
2017-02-23T04:28:42.595Z,21.37
2017-02-23T04:29:53.564Z,21.34
2017-02-23T04:31:04.225Z,21.37
2017-02-23T04:32:14.509Z,21.4
2017-02-23T04:33:24.816Z,21.38
2017-02-23T04:34:35.506Z,21.34
2017-02-23T04:35:46.326Z,21.29
2017-02-23T04:36:56.214Z,21.37
2017-02-23T04:38:06.480Z,21.31
2017-02-23T04:39:16.381Z,21.4
2017-02-23T04:40:27.055Z,21.35
2017-02-23T04:41:37.435Z,21.31
2017-02-23T04:42:48.123Z,21.31
2017-02-23T04:43:58.785Z,21.34
2017-02-23T04:45:09.069Z,21.27
2017-02-23T04:46:19.334Z,21.32
2017-02-23T04:47:29.295Z,21.35
2017-02-23T04:48:39.572Z,21.31
2017-02-23T04:49:50.235Z,21.38
2017-02-23T04:51:00.509Z,21.34
2017-02-23T04:52:10.784Z,21.34
2017-02-23T04:53:21.156Z,21.27
2017-02-23T04:54:31.464Z,21.29
2017-02-23T04:55:42.125Z,21.35
2017-02-23T04:56:52.011Z,21.28
2017-02-23T04:58:02.294Z,21.25
2017-02-23T04:59:13.060Z,21.29
2017-02-23T05:00:23.740Z,21.38
2017-02-23T05:01:34.445Z,21.28
2017-02-23T05:02:45.158Z,21.35
2017-02-23T05:03:55.061Z,21.29
2017-02-23T05:05:05.465Z,21.34
2017-02-23T05:06:16.125Z,21.4
2017-02-23T05:07:26.779Z,21.34
2017-02-23T05:08:37.507Z,21.37
2017-02-23T05:09:46.997Z,21.27
2017-02-23T05:10:57.365Z,21.29
2017-02-23T05:12:08.016Z,21.28
2017-02-23T05:13:18.311Z,21.28
2017-02-23T05:14:28.590Z,21.28
2017-02-23T05:15:38.887Z,21.28
2017-02-23T05:16:49.632Z,21.29
2017-02-23T05:18:00.293Z,21.29
2017-02-23T05:19:10.562Z,21.31
2017-02-23T05:20:20.438Z,21.28
2017-02-23T05:21:30.710Z,21.32
2017-02-23T05:22:41.080Z,21.28
2017-02-23T05:23:50.968Z,21.35
2017-02-23T05:25:01.655Z,21.34
2017-02-23T05:26:12.310Z,21.29
2017-02-23T05:27:23.021Z,21.25
2017-02-23T05:28:33.784Z,21.28
2017-02-23T05:29:43.664Z,21.31
2017-02-23T05:30:54.310Z,21.38
2017-02-23T05:32:04.600Z,21.38
2017-02-23T05:33:14.480Z,21.27
2017-02-23T05:34:25.268Z,21.34
2017-02-23T05:35:35.552Z,21.28
2017-02-23T05:36:46.225Z,21.27
2017-02-23T05:37:56.490Z,21.31
2017-02-23T05:39:07.180Z,21.27
2017-02-23T05:40:17.937Z,21.29
2017-02-23T05:41:27.815Z,21.31
2017-02-23T05:42:38.472Z,21.32
2017-02-23T05:43:48.374Z,21.28
2017-02-23T05:44:58.645Z,21.34
2017-02-23T05:46:09.415Z,21.28
2017-02-23T05:47:19.313Z,21.29
2017-02-23T05:48:29.967Z,21.29
2017-02-23T05:49:40.649Z,21.27
2017-02-23T05:50:50.535Z,21.35
2017-02-23T05:52:01.291Z,21.29
2017-02-23T05:53:11.562Z,21.34
2017-02-23T05:54:22.201Z,21.35
2017-02-23T05:55:32.489Z,21.32
2017-02-23T05:56:43.175Z,21.31
2017-02-23T05:57:53.179Z,21.35
2017-02-23T05:59:03.049Z,21.28
2017-02-23T06:00:13.358Z,21.31
2017-02-23T06:01:23.636Z,21.28
2017-02-23T06:02:33.928Z,21.31
2017-02-23T06:03:44.744Z,21.32
2017-02-23T06:04:55.516Z,21.27
2017-02-23T06:06:05.841Z,21.32
2017-02-23T06:07:16.105Z,21.29
2017-02-23T06:08:26.778Z,21.28
2017-02-23T06:09:37.597Z,21.28
2017-02-23T06:10:47.478Z,21.34
2017-02-23T06:11:57.386Z,21.34
2017-02-23T06:13:08.092Z,21.28
2017-02-23T06:14:18.361Z,21.22
2017-02-23T06:15:29.180Z,21.29
2017-02-23T06:16:39.866Z,21.28
2017-02-23T06:17:50.512Z,21.28
2017-02-23T06:19:00.775Z,21.35
2017-02-23T06:20:11.073Z,21.25
2017-02-23T06:21:21.845Z,21.38
2017-02-23T06:22:32.141Z,21.34
2017-02-23T06:23:42.805Z,21.31
2017-02-23T06:24:53.116Z,21.42
2017-02-23T06:26:03.816Z,21.46
2017-02-23T06:27:14.581Z,21.5
2017-02-23T06:28:24.463Z,21.54
2017-02-23T06:29:34.739Z,21.59
2017-02-23T06:30:44.694Z,21.61
2017-02-23T06:31:55.354Z,21.65
2017-02-23T06:33:05.737Z,21.67
2017-02-23T06:34:16.402Z,21.77
2017-02-23T06:35:26.711Z,21.75
2017-02-23T06:36:37.002Z,21.9
2017-02-23T06:37:47.658Z,21.88
2017-02-23T06:38:57.256Z,21.96
2017-02-23T06:40:07.521Z,21.94
2017-02-23T06:41:17.816Z,21.94
2017-02-23T06:42:28.498Z,22.1
2017-02-23T06:43:37.982Z,22.05
2017-02-23T06:44:47.959Z,22.12
2017-02-23T06:45:58.266Z,22.18
2017-02-23T06:47:08.964Z,22.2
2017-02-23T06:48:19.304Z,22.3
2017-02-23T06:49:29.614Z,22.27
2017-02-23T06:50:40.379Z,22.28
2017-02-23T06:51:51.032Z,22.27
2017-02-23T06:53:00.911Z,22.37
2017-02-23T06:54:11.570Z,22.36
2017-02-23T06:55:21.468Z,22.46
2017-02-23T06:56:31.454Z,22.42
2017-02-23T06:57:40.964Z,22.47
2017-02-23T06:58:51.257Z,22.61
2017-02-23T07:00:01.514Z,22.61
2017-02-23T07:01:12.184Z,22.55
2017-02-23T07:02:22.946Z,22.67
2017-02-23T07:03:33.627Z,22.58
2017-02-23T07:04:43.909Z,22.64
2017-02-23T07:05:53.794Z,22.61
2017-02-23T07:07:03.297Z,22.72
2017-02-23T07:08:14.076Z,22.67
2017-02-23T07:09:24.345Z,22.67
2017-02-23T07:10:34.627Z,22.79
2017-02-23T07:11:44.118Z,22.76
2017-02-23T07:12:54.390Z,22.86
2017-02-23T07:14:05.149Z,22.82
2017-02-23T07:15:14.638Z,22.83
2017-02-23T07:16:24.960Z,22.91
2017-02-23T07:17:34.475Z,22.92
2017-02-23T07:18:45.146Z,23
2017-02-23T07:19:55.533Z,23.02
2017-02-23T07:21:06.203Z,23.05
2017-02-23T07:22:16.133Z,23.13
2017-02-23T07:23:26.037Z,23.15
2017-02-23T07:24:36.693Z,23.13
2017-02-23T07:25:47.114Z,23.2
2017-02-23T07:26:57.393Z,23.22
2017-02-23T07:28:06.891Z,23.27
2017-02-23T07:29:17.183Z,23.33
2017-02-23T07:30:27.454Z,23.23
2017-02-23T07:31:37.973Z,23.25
2017-02-23T07:32:48.549Z,23.28
2017-02-23T07:33:59.203Z,23.39
2017-02-23T07:35:09.864Z,23.35
2017-02-23T07:36:19.345Z,23.36
2017-02-23T07:37:29.719Z,23.42
2017-02-23T07:38:40.012Z,23.38
2017-02-23T07:39:49.904Z,23.43
2017-02-23T07:41:00.176Z,23.42
2017-02-23T07:42:10.854Z,23.35
2017-02-23T07:43:20.887Z,23.38
2017-02-23T07:44:31.564Z,23.39
2017-02-23T07:45:41.455Z,23.32
2017-02-23T07:46:51.336Z,23.4
2017-02-23T07:48:01.985Z,23.27
2017-02-23T07:49:12.750Z,23.28
2017-02-23T07:50:22.233Z,23.38
2017-02-23T07:51:32.898Z,23.27
2017-02-23T07:52:43.192Z,23.27
2017-02-23T07:53:53.107Z,23.19
2017-02-23T07:55:03.497Z,23.2
2017-02-23T07:56:14.158Z,23.15
2017-02-23T07:57:24.049Z,23.15
2017-02-23T07:58:34.721Z,23.12
2017-02-23T07:59:45.374Z,23.02
2017-02-23T08:00:55.416Z,23.01
2017-02-23T08:02:06.075Z,23.01
2017-02-23T08:03:15.961Z,22.97
2017-02-23T08:04:26.257Z,22.92
2017-02-23T08:05:35.750Z,22.95
2017-02-23T08:06:45.728Z,22.88
2017-02-23T08:07:55.994Z,22.91
2017-02-23T08:09:05.951Z,22.9
2017-02-23T08:10:16.953Z,22.9
2017-02-23T08:11:27.212Z,22.77
2017-02-23T08:12:38.010Z,22.86
2017-02-23T08:13:48.285Z,22.82
2017-02-23T08:14:58.966Z,22.79
2017-02-23T08:16:08.865Z,22.7
2017-02-23T08:17:18.762Z,22.72
2017-02-23T08:18:29.718Z,22.73
2017-02-23T08:19:39.626Z,22.7
2017-02-23T08:20:49.517Z,22.72
2017-02-23T08:22:00.197Z,22.61
2017-02-23T08:23:10.502Z,22.49
2017-02-23T08:24:21.274Z,22.58
2017-02-23T08:25:31.935Z,22.65
2017-02-23T08:26:42.659Z,22.61
2017-02-23T08:27:52.925Z,22.68
2017-02-23T08:29:03.617Z,22.57
2017-02-23T08:30:13.635Z,22.57
2017-02-23T08:31:23.506Z,22.55
2017-02-23T08:32:33.400Z,22.57
2017-02-23T08:33:44.101Z,22.49
2017-02-23T08:34:54.415Z,22.61
2017-02-23T08:36:04.010Z,22.54
2017-02-23T08:37:13.545Z,22.57
2017-02-23T08:38:23.858Z,22.51
2017-02-23T08:39:34.175Z,22.54
2017-02-23T08:40:44.069Z,22.45
2017-02-23T08:41:54.526Z,22.46
2017-02-23T08:43:04.809Z,22.43
2017-02-23T08:44:15.116Z,22.45
2017-02-23T08:45:25.818Z,22.45
2017-02-23T08:46:36.103Z,22.47
2017-02-23T08:47:46.154Z,22.42
2017-02-23T08:48:56.450Z,22.37
2017-02-23T08:50:07.125Z,22.4
2017-02-23T08:51:17.314Z,22.4
2017-02-23T08:52:27.626Z,22.35
2017-02-23T08:53:37.237Z,22.35
2017-02-23T08:54:47.120Z,22.36
2017-02-23T08:55:57.795Z,22.39
2017-02-23T08:57:08.466Z,22.33
2017-02-23T08:58:18.749Z,22.33
2017-02-23T08:59:29.666Z,22.24
2017-02-23T09:00:39.948Z,22.28
2017-02-23T09:01:49.847Z,22.33
2017-02-23T09:02:59.758Z,22.24
2017-02-23T09:04:09.629Z,22.27
2017-02-23T09:05:20.060Z,22.33
2017-02-23T09:06:30.469Z,22.28
2017-02-23T09:07:40.767Z,22.28
2017-02-23T09:08:51.049Z,22.28
2017-02-23T09:10:01.738Z,22.3
2017-02-23T09:11:12.176Z,22.31
2017-02-23T09:12:22.459Z,22.27
2017-02-23T09:13:32.392Z,22.25
2017-02-23T09:14:43.068Z,22.22
2017-02-23T09:15:53.379Z,22.22
2017-02-23T09:17:04.137Z,22.25
2017-02-23T09:18:14.402Z,22.2
2017-02-23T09:19:25.060Z,22.2
2017-02-23T09:20:35.364Z,22.21
2017-02-23T09:21:45.638Z,22.24
2017-02-23T09:22:55.707Z,22.2
2017-02-23T09:24:06.377Z,22.21
2017-02-23T09:25:16.262Z,22.17
2017-02-23T09:26:26.966Z,22.17
2017-02-23T09:27:37.250Z,22.21
2017-02-23T09:28:48.072Z,22.21
2017-02-23T09:29:58.358Z,22.18
2017-02-23T09:31:08.244Z,22.22
2017-02-23T09:32:18.528Z,22.14
2017-02-23T09:33:28.444Z,22.18
2017-02-23T09:34:38.897Z,22.15
2017-02-23T09:35:48.784Z,22.14
2017-02-23T09:36:58.711Z,22.17
2017-02-23T09:38:09.410Z,22.15
2017-02-23T09:39:20.103Z,22.14
2017-02-23T09:40:30.933Z,22.14
2017-02-23T09:41:42.104Z,22.09
2017-02-23T09:42:52.003Z,22.07
2017-02-23T09:44:02.749Z,22.15
2017-02-23T09:45:13.441Z,22.12
2017-02-23T09:46:23.483Z,22.17
2017-02-23T09:47:33.388Z,22.06
2017-02-23T09:48:44.049Z,22.1
2017-02-23T09:49:54.737Z,22.09
2017-02-23T09:51:05.024Z,22.14
2017-02-23T09:52:15.467Z,22.05
2017-02-23T09:53:26.156Z,22.09
2017-02-23T09:54:36.831Z,22.07
2017-02-23T09:55:47.508Z,22.05
2017-02-23T09:56:57.411Z,22.15
2017-02-23T09:58:08.236Z,22.06
2017-02-23T09:59:18.941Z,22.1
2017-02-23T10:00:29.233Z,22.07
2017-02-23T10:01:39.946Z,22.06
2017-02-23T10:02:49.855Z,21.98
2017-02-23T10:04:00.692Z,22.1
2017-02-23T10:05:10.606Z,22.1
2017-02-23T10:06:21.318Z,22.07
2017-02-23T10:07:31.214Z,22.07
2017-02-23T10:08:41.091Z,22.02
2017-02-23T10:09:51.932Z,21.96
2017-02-23T10:11:02.217Z,22.02
2017-02-23T10:12:11.718Z,21.98
2017-02-23T10:13:22.391Z,21.99
2017-02-23T10:14:32.684Z,21.96
2017-02-23T10:16:51.070Z,22
2017-02-23T10:18:01.371Z,21.98
2017-02-23T10:19:12.057Z,21.99
2017-02-23T10:20:22.330Z,21.94
2017-02-23T10:21:33.012Z,21.98
2017-02-23T10:22:43.015Z,21.98
2017-02-23T10:23:53.327Z,21.94
2017-02-23T10:25:03.625Z,21.98
2017-02-23T10:26:13.538Z,21.98
2017-02-23T10:27:24.226Z,21.98
2017-02-23T10:28:34.993Z,21.96
2017-02-23T10:29:46.126Z,22.02
2017-02-23T10:30:56.794Z,22.02
2017-02-23T10:32:07.491Z,21.99
2017-02-23T10:33:18.178Z,21.96
2017-02-23T10:34:28.974Z,22
2017-02-23T10:35:39.286Z,21.98
2017-02-23T10:36:49.579Z,22
2017-02-23T10:37:59.109Z,21.94
2017-02-23T10:39:09.822Z,21.99
2017-02-23T10:40:20.216Z,21.96
2017-02-23T10:41:30.142Z,21.98
2017-02-23T10:42:40.814Z,22.02
2017-02-23T10:43:51.525Z,22.05
2017-02-23T10:45:02.198Z,21.99
2017-02-23T10:46:12.631Z,22
2017-02-23T10:47:22.937Z,21.94
2017-02-23T10:48:33.217Z,21.96
2017-02-23T10:49:43.888Z,21.91
2017-02-23T10:50:54.569Z,21.98
2017-02-23T10:52:04.578Z,21.96
2017-02-23T10:53:14.857Z,22.05
2017-02-23T10:54:25.564Z,22.03
2017-02-23T10:55:35.861Z,22
2017-02-23T10:56:46.527Z,22.02
2017-02-23T10:57:56.907Z,21.99
2017-02-23T10:59:06.812Z,22.03
2017-02-23T11:00:17.105Z,22.07
2017-02-23T11:01:26.996Z,22.1
2017-02-23T11:02:37.667Z,21.98
2017-02-23T11:03:48.044Z,22.02
2017-02-23T11:04:57.947Z,22
2017-02-23T11:06:07.835Z,22.07
2017-02-23T11:07:17.731Z,21.98
2017-02-23T11:08:28.030Z,22
2017-02-23T11:09:38.828Z,22.06
2017-02-23T11:10:48.350Z,22.07
2017-02-23T11:11:58.247Z,22.05
2017-02-23T11:13:09.268Z,22.09
2017-02-23T11:14:19.174Z,22.1
2017-02-23T11:15:29.555Z,22.02
2017-02-23T11:16:40.230Z,22.03
2017-02-23T11:17:50.530Z,21.99
2017-02-23T11:19:00.452Z,22.05
2017-02-23T11:20:10.753Z,22.09
2017-02-23T11:21:20.387Z,22.09
2017-02-23T11:22:31.113Z,22.09
2017-02-23T11:23:41.799Z,22.06
2017-02-23T11:24:52.473Z,22.15
2017-02-23T11:26:02.797Z,22.1
2017-02-23T11:27:13.583Z,22.14
2017-02-23T11:28:23.885Z,22.06
2017-02-23T11:29:34.206Z,22.15
2017-02-23T11:30:44.883Z,22.2
2017-02-23T11:31:55.180Z,22.18
2017-02-23T11:33:05.236Z,22.2
2017-02-23T11:34:15.827Z,22.18
2017-02-23T11:35:25.741Z,22.17
2017-02-23T11:36:36.023Z,22.17
2017-02-23T11:37:45.922Z,22.1
2017-02-23T11:38:56.520Z,22.06
2017-02-23T11:40:07.190Z,22.14
2017-02-23T11:41:17.100Z,22.06
2017-02-23T11:42:27.017Z,22.14
2017-02-23T11:43:37.317Z,22.05
2017-02-23T11:44:48.178Z,22.09
2017-02-23T11:45:58.163Z,22.18
2017-02-23T11:47:08.501Z,22
2017-02-23T11:48:18.775Z,22.15
2017-02-23T11:49:29.478Z,22.2
2017-02-23T11:50:39.495Z,22.07
2017-02-23T11:51:49.386Z,22.02
2017-02-23T11:52:59.283Z,22.03
2017-02-23T11:54:09.558Z,22.1
2017-02-23T11:55:20.247Z,22.06
2017-02-23T11:56:31.048Z,22.09
2017-02-23T11:57:41.367Z,22.07
2017-02-23T11:58:52.074Z,22.09
2017-02-23T12:00:02.397Z,22.06
2017-02-23T12:01:12.275Z,22.09
2017-02-23T12:02:23.081Z,22.02
2017-02-23T12:03:33.767Z,22.07
2017-02-23T12:04:43.285Z,22.07
2017-02-23T12:05:53.971Z,22.07
2017-02-23T12:07:04.643Z,22.09
2017-02-23T12:08:15.479Z,22.03
2017-02-23T12:09:26.146Z,22.06
2017-02-23T12:10:36.058Z,22.06
2017-02-23T12:11:46.353Z,22.05
2017-02-23T12:12:56.251Z,22.05
2017-02-23T12:14:07.045Z,22
2017-02-23T12:15:17.708Z,21.99
2017-02-23T12:16:28.002Z,22.06
2017-02-23T12:17:37.909Z,22
2017-02-23T12:18:47.792Z,21.99
2017-02-23T12:19:57.807Z,22
2017-02-23T12:21:08.511Z,22.05
2017-02-23T12:22:18.798Z,22.02
2017-02-23T12:23:29.108Z,22.02
2017-02-23T12:24:39.426Z,21.96
2017-02-23T12:25:49.833Z,21.98
2017-02-23T12:27:00.110Z,22.1
2017-02-23T12:28:09.996Z,22.02
2017-02-23T12:29:20.296Z,22.09
2017-02-23T12:30:30.589Z,21.98
2017-02-23T12:31:41.380Z,22.07
2017-02-23T12:32:51.675Z,22
2017-02-23T12:34:01.988Z,22.02
2017-02-23T12:35:12.284Z,22.06
2017-02-23T12:36:22.592Z,21.98
2017-02-23T12:37:32.606Z,21.98
2017-02-23T12:38:43.271Z,22.09
2017-02-23T12:39:53.979Z,22.02
2017-02-23T12:41:04.277Z,22.05
2017-02-23T12:42:14.584Z,21.98
2017-02-23T12:43:24.617Z,21.94
2017-02-23T12:44:34.911Z,22
2017-02-23T12:45:45.591Z,22.06
2017-02-23T12:46:55.867Z,21.99
2017-02-23T12:48:05.791Z,22
2017-02-23T12:49:16.207Z,22
2017-02-23T12:50:26.900Z,21.96
2017-02-23T12:51:37.191Z,21.98
2017-02-23T12:52:47.141Z,22
2017-02-23T12:53:57.428Z,22
2017-02-23T12:55:07.824Z,22.02
2017-02-23T12:56:18.515Z,21.98
2017-02-23T12:57:29.190Z,21.98
2017-02-23T12:58:39.869Z,21.94
2017-02-23T12:59:49.375Z,21.98
2017-02-23T13:00:59.760Z,21.98
2017-02-23T13:02:10.437Z,21.96
2017-02-23T13:03:20.758Z,21.98
2017-02-23T13:04:31.433Z,21.99
2017-02-23T13:05:41.748Z,22
2017-02-23T13:06:52.150Z,21.92
2017-02-23T13:08:02.456Z,21.96
2017-02-23T13:09:11.965Z,22
2017-02-23T13:10:22.302Z,21.94
2017-02-23T13:11:32.640Z,22.03
2017-02-23T13:12:43.401Z,22.02
2017-02-23T13:13:53.710Z,21.98
2017-02-23T13:15:04.016Z,22
2017-02-23T13:16:14.698Z,21.94
2017-02-23T13:17:25.373Z,21.96
2017-02-23T13:18:36.292Z,21.91
2017-02-23T13:19:46.189Z,21.94
2017-02-23T13:20:56.072Z,21.84
2017-02-23T13:22:05.966Z,21.94
2017-02-23T13:23:16.557Z,21.96
2017-02-23T13:24:26.559Z,21.98
2017-02-23T13:25:37.295Z,21.84
2017-02-23T13:26:47.994Z,21.96
2017-02-23T13:27:57.541Z,22.03
2017-02-23T13:29:07.842Z,21.94
2017-02-23T13:30:18.607Z,21.94
2017-02-23T13:31:28.535Z,21.79
2017-02-23T13:32:39.246Z,21.83
2017-02-23T13:33:49.547Z,21.96
2017-02-23T13:34:59.835Z,21.92
2017-02-23T13:36:10.275Z,21.99
2017-02-23T13:37:20.572Z,21.98
2017-02-23T13:38:30.462Z,21.96
2017-02-23T13:39:40.758Z,21.94
2017-02-23T13:40:50.648Z,21.86
2017-02-23T13:42:00.638Z,21.9
2017-02-23T13:43:10.953Z,21.88
2017-02-23T13:44:21.635Z,21.86
2017-02-23T13:45:32.322Z,21.94
2017-02-23T13:46:42.545Z,21.92
2017-02-23T13:47:53.316Z,21.92
2017-02-23T13:49:03.999Z,21.91
2017-02-23T13:50:14.682Z,21.92
2017-02-23T13:51:24.594Z,21.94
2017-02-23T13:52:35.315Z,21.9
2017-02-23T13:53:46.241Z,21.91
2017-02-23T13:54:56.527Z,21.91
2017-02-23T13:56:07.434Z,21.88
2017-02-23T13:57:16.931Z,21.94
2017-02-23T13:58:27.246Z,21.94
2017-02-23T13:59:38.087Z,21.88
2017-02-23T14:00:48.743Z,21.86
2017-02-23T14:01:59.030Z,21.91
2017-02-23T14:03:09.853Z,21.91
2017-02-23T14:04:20.190Z,21.9
2017-02-23T14:05:30.952Z,21.99
2017-02-23T14:06:40.875Z,21.9
2017-02-23T14:07:51.167Z,21.84
2017-02-23T14:09:01.839Z,21.92
2017-02-23T14:10:12.514Z,21.88
2017-02-23T14:11:22.909Z,21.9
2017-02-23T14:12:33.188Z,21.9
2017-02-23T14:13:43.468Z,21.88
2017-02-23T14:14:53.772Z,21.88
2017-02-23T14:16:04.449Z,21.9
2017-02-23T14:17:14.441Z,21.9
2017-02-23T14:18:25.118Z,21.98
2017-02-23T14:19:35.016Z,21.9
2017-02-23T14:20:45.307Z,21.94
2017-02-23T14:21:54.811Z,21.9
2017-02-23T14:23:05.196Z,21.96
2017-02-23T14:24:15.498Z,21.86
2017-02-23T14:25:26.184Z,21.9
2017-02-23T14:26:36.462Z,21.96
2017-02-23T14:27:46.361Z,21.88
2017-02-23T14:28:56.380Z,21.88
2017-02-23T14:30:06.673Z,21.91
2017-02-23T14:31:16.176Z,21.88
2017-02-23T14:32:26.493Z,21.92
2017-02-23T14:33:36.784Z,21.86
2017-02-23T14:34:47.177Z,21.82
2017-02-23T14:35:57.458Z,21.82
2017-02-23T14:37:07.768Z,21.79
2017-02-23T14:38:17.652Z,21.86
2017-02-23T14:39:27.956Z,21.91
2017-02-23T14:40:38.357Z,21.77
2017-02-23T14:41:49.095Z,21.88
2017-02-23T14:42:58.652Z,21.9
2017-02-23T14:44:08.943Z,21.82
2017-02-23T14:45:19.610Z,21.77
2017-02-23T14:46:30.383Z,21.82
2017-02-23T14:47:40.675Z,21.91
2017-02-23T14:48:50.956Z,21.84
2017-02-23T14:50:01.256Z,21.92
2017-02-23T14:51:11.933Z,21.9
2017-02-23T14:52:21.564Z,21.9
2017-02-23T14:53:31.882Z,21.92
2017-02-23T14:54:42.590Z,21.91
2017-02-23T14:55:53.309Z,21.96
2017-02-23T14:57:03.213Z,21.88
2017-02-23T14:58:13.700Z,21.91
2017-02-23T14:59:23.603Z,21.92
2017-02-23T15:00:34.352Z,21.92
2017-02-23T15:01:45.019Z,21.9
2017-02-23T15:02:55.687Z,21.94
2017-02-23T15:04:06.167Z,21.84
2017-02-23T15:05:16.125Z,21.91
2017-02-23T15:06:26.797Z,21.92
2017-02-23T15:07:36.697Z,21.88
2017-02-23T15:08:46.236Z,21.91
2017-02-23T15:09:56.256Z,21.86
2017-02-23T15:11:07.008Z,21.96
2017-02-23T15:12:17.317Z,21.9